x

Edisto - 41 Nm Southeast Of Charleston, Sc (41004) Wave Buoy

10:50am - Mon 26th Jan 2015 All times are EST. -5 hours from GMT.

  • Sig Wave height 5.9ft
  • Swell Direction
  • Peak Period 7s
  • Average Period 5s
  • Wind
    22mph, 27mph gusts
  • Sea Temp 69°f
  • Air Temp 55°f
  • Sea Pressure 1005mb
  • Edisto - 41 Nm Southeast Of Charleston, Sc
  • Edisto - 41 Nm Southeast Of Charleston, Sc

More Historic Weather Station data

Upgrade to MSW Pro to gain access to the past 30 days of data for over 8000 Wavebouys and Weather Stations around the globe.

Join Pro

Comparision Forecast

View Surf forecast
   
Mon 01/26 10:50am 6ft 7s 5s 22 27 mph 1005mb 69f 55f
9:50am 5.5ft 7s 5s 22 27 mph 1004.9mb 69f 56f
8:50am 6ft 7s 5s 25 29 mph 1004.8mb 69f 57f
7:50am 6.5ft 7s 5s 22 27 mph 1004.6mb 69f 59f
6:50am 6.5ft 7s 5s 22 27 mph 1004.8mb 69f 60f
5:50am 7ft 7s 5s 25 31 mph 1005.4mb 69f 60f
4:50am 7.5ft 7s 5s 29 34 mph 1005.6mb 69f 61f
3:50am 7ft 6s 5s 25 31 mph 1006.8mb 69f 62f
2:50am 7ft 7s 5s 25 31 mph 1007.9mb 69f 62f
1:50am 7ft 7s 5s 25 31 mph 1008.4mb 69f 61f
12:50am 6ft 6s 5s 27 34 mph 1009.1mb 69f 62f
Sun 01/25 11:50pm 6ft 6s 5s 27 34 mph 1009.9mb 69f 63f
10:50pm 5ft 5s 4s 27 31 mph 1010.6mb 69f 62f
9:50pm 4ft 5s 4s 25 29 mph 1010.8mb 69f 62f
8:50pm 3.5ft 4s 4s 22 27 mph 1011mb 69f 61f
7:50pm 3.5ft 4s 4s 20 27 mph 1011.6mb 69f 61f
6:50pm 2.5ft 8s 4s 20 25 mph 1011.5mb 69f 60f
5:50pm 2.5ft 5s 4s 16 20 mph 1011.6mb 69f 59f
4:50pm 2.5ft 8s 5s 13 16 mph 1012.3mb 69f 58f
3:50pm 2.5ft 6s 5s 11 16 mph 1012.6mb 69f 56f
2:50pm 2.5ft 6s 5s 9 11 mph 1013.1mb 70f 55f
1:50pm 2.5ft 6s 5s 4 11 mph 1014mb 70f 54f
12:50pm 3ft 5s 5s 4 7 mph 1014.6mb 69f 53f
11:50am 3.5ft 6s 5s 7 9 mph 1015.7mb 69f 53f
10:50am 3.5ft 6s 5s 7 9 mph 1016mb 69f 52f
9:50am 4ft 6s 5s 9 13 mph 1015.8mb 69f 52f
8:50am 4.5ft 6s 5s 11 13 mph 1016.2mb 69f 51f
7:50am 5ft 7s 5s 13 18 mph 1015.9mb 69f 51f
6:50am 5ft 6s 5s 13 16 mph 1015.3mb 69f 50f
5:50am 6.5ft 7s 5s 16 20 mph 1014.3mb 69f 51f
4:50am 6ft 7s 5s 22 25 mph 1013.5mb 69f 52f
3:50am 6ft 7s 5s 25 31 mph 1012.8mb 69f 52f
2:50am 7ft 7s 5s 22 29 mph 1012.7mb 69f 53f
1:50am 7ft 8s 5s 27 31 mph 1012.2mb 69f 54f
12:50am 7ft 7s 5s 27 31 mph 1011.9mb 70f 54f
Sat 01/24 11:50pm 8ft 8s 6s 27 34 mph 1012mb 70f 55f
10:50pm 8ft 8s 6s 27 31 mph 1011.9mb 70f 56f
9:50pm 8ft 8s 6s 25 29 mph 1011.1mb 70f 56f
8:50pm 8ft 8s 6s 27 34 mph 1010.9mb 70f 57f
7:50pm 7.5ft 8s 6s 22 29 mph 1010mb 70f 58f
6:50pm 7.5ft 7s 6s 18 25 mph 1009.5mb 69f 57f
5:50pm 8ft 8s 6s 20 25 mph 1008.5mb 69f 56f
4:50pm 9.5ft 8s 6s 27 34 mph 1007.4mb 69f 57f
3:50pm 11ft 7s 6s 25 31 mph 1006.6mb 70f 56f
2:50pm 10ft 7s 6s 31 38 mph 1005.5mb 70f 55f
1:50pm 10.5ft 9s 6s 34 40 mph 1004.8mb 70f 55f
12:50pm 12.5ft 9s 6s 34 40 mph 1004.1mb 70f 55f
11:50am 12ft 9s 6s 34 38 mph 1004.1mb 70f 56f
10:50am 11.5ft 10s 6s 38 47 mph 1002.9mb 70f 58f
9:50am 14ft 10s 7s 34 43 mph 1002.8mb 70f 60f
8:50am 14ft 9s 7s 36 47 mph 1001.5mb 70f 62f
7:50am 13ft 8s 7s 34 40 mph 1000.9mb 71f 64f
6:50am 14.5ft 10s 7s 36 45 mph 999.5mb 71f 72f
5:50am 14ft 9s 7s 38 51 mph 999.8mb 71f 72f
4:50am 13ft 9s 7s 36 43 mph 1000.5mb 71f 72f
3:50am 13ft 10s 7s 34 40 mph 1001.9mb 71f 72f
2:50am 14ft 9s 7s 34 43 mph 1002.8mb 71f 73f
1:50am 13ft 9s 7s 31 40 mph 1003.9mb 71f 73f
12:50am 13ft 8s 7s 34 43 mph 1004.9mb 71f 74f
Fri 01/23 11:50pm 13ft 8s 7s 31 45 mph 1006.1mb 71f 73f
10:50pm 13ft 8s 7s 31 38 mph 1007.2mb 71f 74f
9:50pm 13.5ft 8s 7s 31 43 mph 1007.9mb 71f 73f
8:50pm 11ft 8s 6s 34 43 mph 1008.5mb 71f 73f
7:50pm 10.5ft 7s 6s 36 43 mph 1009.5mb 71f 73f
6:50pm 10ft 7s 6s 34 40 mph 1010.2mb 71f 73f
5:50pm 7ft 6s 5s 29 36 mph 1011.6mb 71f 71f
4:50pm 6.5ft 5s 5s 29 38 mph 1012.7mb 71f 72f
3:50pm 6ft 5s 5s 27 34 mph 1013.3mb 71f 72f
2:50pm 6ft 7s 5s 22 31 mph 1014.7mb 71f 72f
1:50pm 5.5ft 7s 5s 20 22 mph 1015.7mb 71f 71f
12:50pm 5ft 7s 5s 22 27 mph 1016.7mb 71f 71f
11:50am 5ft 6s 5s 20 25 mph 1018.2mb 71f 72f
10:50am 5ft 6s 5s 13 18 mph 1019.4mb 71f 71f
9:50am 5ft 7s 5s 20 25 mph 1019.2mb 71f 69f
8:50am 5ft 6s 5s 13 18 mph 1019.9mb 71f 70f
7:50am 4.5ft 6s 5s 11 13 mph 1020.4mb 71f 70f
6:50am 5ft 6s 5s 16 20 mph 1020.5mb 71f 69f
5:50am 4.5ft 6s 5s 16 18 mph 1020.5mb 71f 69f
4:50am 5ft 6s 5s 16 20 mph 1020.9mb 71f 69f
3:50am 6ft 6s 5s 16 22 mph 1021.5mb 71f 68f
2:50am 5.5ft 6s 5s 22 27 mph 1021.1mb 71f 67f
1:50am 6ft 6s 5s 22 27 mph 1021.3mb 71f 67f
12:50am 5.5ft 6s 5s 25 29 mph 1021.5mb 71f 67f
Thu 01/22 11:50pm 5.5ft 6s 5s 25 29 mph 1022mb 71f 66f
10:50pm 5.5ft 6s 5s 22 27 mph 1022.4mb 71f 66f
9:50pm 4.5ft 6s 5s 22 27 mph 1022.3mb 71f 67f
8:50pm 4.5ft 6s 5s 20 25 mph 1022.9mb 71f 67f
7:50pm 4.5ft 6s 5s 20 25 mph 1022.6mb 71f 67f
6:50pm 4.5ft 6s 5s 20 22 mph 1022.6mb 71f 67f
5:50pm 4.5ft 5s 5s 18 20 mph 1022.4mb 71f 67f